createdAt,value
2023-12-14T00:01:16.241Z,18.77
2023-12-14T00:03:45.583Z,19.20
2023-12-14T00:06:13.584Z,18.20
2023-12-14T00:08:41.784Z,18.77
2023-12-14T00:11:10.369Z,18.00
2023-12-14T00:13:38.278Z,18.27
2023-12-14T00:16:06.407Z,18.03
2023-12-14T00:18:33.648Z,18.80
2023-12-14T00:21:00.989Z,18.97
2023-12-14T00:23:28.156Z,18.47
2023-12-14T00:25:55.504Z,18.37
2023-12-14T00:28:25.288Z,18.23
2023-12-14T00:30:54.076Z,18.10
2023-12-14T00:33:21.312Z,17.67
2023-12-14T00:35:48.598Z,18.40
2023-12-14T00:38:15.824Z,18.47
2023-12-14T00:40:43.098Z,18.60
2023-12-14T00:43:10.359Z,18.33
2023-12-14T00:45:37.704Z,18.03
2023-12-14T00:48:05.258Z,18.03
2023-12-14T00:50:32.520Z,18.70
2023-12-14T00:52:59.752Z,17.67
2023-12-14T00:55:27.124Z,18.17
2023-12-14T00:57:54.518Z,18.40
2023-12-14T01:00:21.832Z,19.17
2023-12-14T01:02:49.053Z,18.83
2023-12-14T01:05:16.521Z,18.13
2023-12-14T01:07:43.978Z,18.00
2023-12-14T01:10:11.359Z,18.70
2023-12-14T01:12:38.750Z,19.23
2023-12-14T01:15:07.100Z,18.27
2023-12-14T01:17:37.562Z,19.70
2023-12-14T01:20:09.310Z,19.33
2023-12-14T01:22:36.999Z,19.40
2023-12-14T01:25:04.753Z,19.13
2023-12-14T01:27:32.002Z,19.20
2023-12-14T01:29:59.229Z,19.90
2023-12-14T01:32:26.437Z,19.03
2023-12-14T01:34:53.800Z,20.63
2023-12-14T01:37:21.005Z,20.20
2023-12-14T01:39:48.411Z,20.53
2023-12-14T01:42:15.620Z,20.67
2023-12-14T01:44:42.903Z,20.53
2023-12-14T01:47:10.305Z,20.80
2023-12-14T01:49:37.686Z,20.60
2023-12-14T01:52:05.125Z,21.17
2023-12-14T01:54:32.369Z,20.43
2023-12-14T01:57:00.409Z,20.50
2023-12-14T01:59:27.599Z,19.97
2023-12-14T02:01:58.000Z,20.80
2023-12-14T02:04:26.888Z,19.67
2023-12-14T02:06:54.233Z,19.47
2023-12-14T02:09:21.466Z,19.93
2023-12-14T02:11:48.798Z,19.23
2023-12-14T02:14:16.345Z,20.33
2023-12-14T02:16:43.697Z,19.50
2023-12-14T02:19:11.056Z,19.83
2023-12-14T02:21:38.450Z,19.50
2023-12-14T02:24:05.829Z,20.20
2023-12-14T02:26:33.244Z,20.73
2023-12-14T02:29:00.480Z,20.37
2023-12-14T02:31:27.675Z,20.17
2023-12-14T02:33:54.987Z,19.83
2023-12-14T02:36:22.630Z,20.27
2023-12-14T02:38:49.886Z,19.97
2023-12-14T02:41:17.239Z,19.43
2023-12-14T02:43:44.466Z,20.97
2023-12-14T02:46:13.250Z,20.13
2023-12-14T02:48:43.979Z,19.90
2023-12-14T02:51:16.015Z,19.87
2023-12-14T02:53:43.948Z,20.15
2023-12-14T02:56:12.790Z,19.63
2023-12-14T02:58:40.402Z,20.43
2023-12-14T03:01:07.853Z,19.93
2023-12-14T03:03:35.243Z,18.97
2023-12-14T03:06:02.639Z,20.63
2023-12-14T03:08:29.884Z,19.90
2023-12-14T03:10:58.656Z,20.33
2023-12-14T03:13:26.013Z,20.17
2023-12-14T03:15:53.783Z,21.73
2023-12-14T03:18:21.141Z,21.00
2023-12-14T03:20:48.461Z,20.77
2023-12-14T03:23:15.838Z,21.70
2023-12-14T03:25:43.111Z,21.40
2023-12-14T03:28:10.679Z,21.60
2023-12-14T03:30:37.935Z,20.43
2023-12-14T03:33:08.472Z,21.23
2023-12-14T03:35:35.883Z,21.73
2023-12-14T03:38:03.153Z,21.60
2023-12-14T03:40:30.639Z,21.97
2023-12-14T03:42:58.082Z,21.37
2023-12-14T03:45:25.389Z,21.37
2023-12-14T03:47:52.713Z,20.87
2023-12-14T03:50:20.111Z,20.27
2023-12-14T03:52:47.986Z,19.87
2023-12-14T03:55:16.522Z,20.47
2023-12-14T03:57:43.820Z,20.50
2023-12-14T04:00:12.839Z,20.73
2023-12-14T04:02:41.044Z,21.07
2023-12-14T04:05:12.206Z,21.30
2023-12-14T04:07:41.962Z,20.50
2023-12-14T04:10:14.780Z,20.13
2023-12-14T04:12:42.666Z,20.45
2023-12-14T04:15:11.596Z,20.50
2023-12-14T04:17:39.123Z,20.23
2023-12-14T04:20:07.530Z,20.80
2023-12-14T04:22:35.603Z,19.90
2023-12-14T04:25:03.240Z,20.30
2023-12-14T04:27:31.423Z,20.70
2023-12-14T04:29:58.771Z,21.07
2023-12-14T04:32:25.979Z,20.13
2023-12-14T04:34:53.440Z,20.47
2023-12-14T04:37:20.685Z,20.73
2023-12-14T04:39:47.945Z,20.17
2023-12-14T04:42:15.288Z,20.63
2023-12-14T04:44:42.526Z,20.70
2023-12-14T04:47:09.823Z,20.03
2023-12-14T04:49:37.423Z,19.87
2023-12-14T04:52:05.095Z,20.00
2023-12-14T04:54:32.577Z,19.50
2023-12-14T04:56:59.917Z,20.10
2023-12-14T04:59:27.101Z,19.77
2023-12-14T05:01:54.382Z,21.20
2023-12-14T05:04:21.593Z,20.40
2023-12-14T05:06:48.896Z,20.90
2023-12-14T05:09:16.074Z,20.77
2023-12-14T05:11:44.202Z,21.43
2023-12-14T05:14:11.560Z,22.50
2023-12-14T05:16:38.979Z,22.13
2023-12-14T05:19:06.223Z,21.90
2023-12-14T05:21:33.990Z,20.97
2023-12-14T05:24:01.281Z,21.20
2023-12-14T05:26:28.491Z,20.73
2023-12-14T05:28:55.755Z,21.67
2023-12-14T05:31:22.931Z,22.30
2023-12-14T05:33:50.204Z,22.20
2023-12-14T05:36:17.551Z,21.77
2023-12-14T05:38:45.420Z,20.83
2023-12-14T05:41:12.648Z,21.87
2023-12-14T05:43:39.775Z,21.70
2023-12-14T05:46:07.190Z,22.03
2023-12-14T05:48:34.492Z,22.93
2023-12-14T05:51:02.263Z,22.10
2023-12-14T05:53:29.391Z,21.83
2023-12-14T05:55:56.856Z,22.10
2023-12-14T05:58:24.005Z,20.97
2023-12-14T06:00:51.240Z,21.87
2023-12-14T06:03:18.636Z,22.13
2023-12-14T06:05:46.127Z,21.53
2023-12-14T06:08:13.536Z,23.00
2023-12-14T06:10:40.830Z,22.23
2023-12-14T06:13:07.990Z,22.63
2023-12-14T06:15:35.184Z,22.47
2023-12-14T06:18:02.484Z,22.77
2023-12-14T06:20:29.861Z,22.43
2023-12-14T06:22:57.079Z,20.87
2023-12-14T06:25:24.322Z,21.93
2023-12-14T06:27:51.526Z,22.30
2023-12-14T06:30:18.851Z,23.47
2023-12-14T06:32:46.178Z,22.17
2023-12-14T06:35:14.122Z,22.13
2023-12-14T06:37:43.186Z,21.60
2023-12-14T06:40:11.990Z,21.63
2023-12-14T06:42:39.444Z,22.60
2023-12-14T06:45:07.392Z,21.60
2023-12-14T06:47:34.801Z,21.50
2023-12-14T06:50:02.397Z,22.00
2023-12-14T06:52:29.686Z,21.60
2023-12-14T06:54:56.947Z,21.20
2023-12-14T06:57:26.186Z,21.73
2023-12-14T06:59:54.801Z,21.60
2023-12-14T07:02:22.210Z,21.20
2023-12-14T07:04:50.265Z,22.03
2023-12-14T07:07:17.554Z,20.83
2023-12-14T07:09:47.428Z,21.63
2023-12-14T07:12:15.074Z,21.83
2023-12-14T07:14:42.450Z,22.37
2023-12-14T07:17:09.772Z,21.43
2023-12-14T07:19:37.185Z,21.30
2023-12-14T07:22:04.657Z,21.43
2023-12-14T07:24:40.515Z,21.80
2023-12-14T07:27:16.026Z,21.37
2023-12-14T07:29:43.233Z,21.47
2023-12-14T07:32:10.568Z,21.60
2023-12-14T07:34:37.821Z,20.97
2023-12-14T07:37:05.192Z,21.97
2023-12-14T07:39:32.723Z,20.30
2023-12-14T07:42:01.564Z,21.37
2023-12-14T07:44:31.503Z,21.20
2023-12-14T07:47:01.518Z,21.90
2023-12-14T07:49:30.398Z,21.17
2023-12-14T07:51:57.812Z,21.30
2023-12-14T07:54:27.191Z,22.03
2023-12-14T07:56:54.514Z,20.60
2023-12-14T07:59:22.344Z,20.90
2023-12-14T08:01:49.649Z,20.83
2023-12-14T08:04:16.952Z,21.57
2023-12-14T08:06:44.230Z,21.40
2023-12-14T08:09:11.448Z,21.67
2023-12-14T08:11:38.650Z,20.52
2023-12-14T08:14:05.912Z,21.60
2023-12-14T08:16:33.296Z,21.17
2023-12-14T08:19:00.577Z,21.07
2023-12-14T08:21:27.957Z,21.30
2023-12-14T08:23:55.105Z,19.90
2023-12-14T08:26:22.474Z,20.33
2023-12-14T08:28:49.828Z,20.00
2023-12-14T08:31:17.149Z,19.30
2023-12-14T08:33:47.511Z,18.67
2023-12-14T08:36:18.369Z,18.17
2023-12-14T08:38:45.816Z,18.37
2023-12-14T08:41:17.233Z,18.77
2023-12-14T08:43:45.007Z,18.80
2023-12-14T08:46:12.459Z,19.53
2023-12-14T08:48:39.732Z,18.77
2023-12-14T08:51:07.481Z,18.90
2023-12-14T08:53:34.863Z,19.27
2023-12-14T08:56:03.843Z,18.30
2023-12-14T08:58:31.148Z,19.03
2023-12-14T09:00:58.350Z,18.73
2023-12-14T09:03:27.896Z,19.60
2023-12-14T09:05:55.491Z,19.35
2023-12-14T09:08:22.986Z,19.77
2023-12-14T09:10:50.642Z,18.30
2023-12-14T09:13:18.066Z,18.98
2023-12-14T09:15:45.414Z,19.20
2023-12-14T09:18:12.773Z,19.37
2023-12-14T09:20:41.784Z,19.00
2023-12-14T09:23:09.341Z,19.30
2023-12-14T09:25:37.011Z,18.97
2023-12-14T09:28:04.452Z,20.07
2023-12-14T09:30:31.741Z,19.43
2023-12-14T09:32:59.305Z,18.90
2023-12-14T09:35:26.980Z,19.15
2023-12-14T09:37:54.989Z,19.77
2023-12-14T09:40:23.433Z,19.77
2023-12-14T09:42:50.641Z,19.20
2023-12-14T09:45:18.855Z,19.58
2023-12-14T09:47:48.106Z,20.48
2023-12-14T09:50:16.386Z,20.27
2023-12-14T09:52:46.746Z,21.05
2023-12-14T09:55:14.475Z,19.17
2023-12-14T09:57:41.726Z,19.35
2023-12-14T10:00:12.108Z,19.00
2023-12-14T10:02:39.401Z,18.08
2023-12-14T10:05:11.674Z,19.02
2023-12-14T10:07:45.555Z,19.30
2023-12-14T10:10:15.510Z,19.02
2023-12-14T10:12:55.973Z,18.40
2023-12-14T10:15:25.786Z,19.05
2023-12-14T10:17:55.978Z,19.50
2023-12-14T10:20:24.741Z,19.67
2023-12-14T10:22:52.424Z,19.13
2023-12-14T10:25:20.463Z,19.90
2023-12-14T10:27:58.166Z,19.50
2023-12-14T10:30:25.601Z,19.25
2023-12-14T10:32:52.852Z,18.75
2023-12-14T10:35:21.439Z,19.50
2023-12-14T10:37:52.373Z,19.17
2023-12-14T10:40:20.101Z,18.83
2023-12-14T10:42:48.612Z,18.77
2023-12-14T10:45:20.027Z,18.13
2023-12-14T10:47:49.980Z,19.42
2023-12-14T10:50:18.657Z,18.77
2023-12-14T10:52:46.798Z,18.85
2023-12-14T10:55:34.769Z,18.60
2023-12-14T10:58:02.920Z,18.45
2023-12-14T11:00:30.340Z,18.88
2023-12-14T11:03:01.095Z,19.38
2023-12-14T11:05:32.385Z,18.63
2023-12-14T11:08:15.619Z,18.05
2023-12-14T11:10:47.788Z,18.60
2023-12-14T11:13:18.802Z,18.05
2023-12-14T11:15:53.501Z,17.92
2023-12-14T11:18:22.793Z,17.65
2023-12-14T11:20:52.136Z,18.13
2023-12-14T11:23:32.787Z,17.88
2023-12-14T11:26:04.901Z,17.45
2023-12-14T11:28:34.438Z,17.35
2023-12-14T11:31:03.437Z,16.80
2023-12-14T11:33:30.790Z,18.52
2023-12-14T11:35:58.456Z,17.48
2023-12-14T11:38:26.516Z,17.08
2023-12-14T11:40:54.108Z,17.17
2023-12-14T11:43:26.142Z,17.88
2023-12-14T11:45:56.070Z,17.90
2023-12-14T11:48:23.639Z,19.15
2023-12-14T11:50:51.134Z,18.52
2023-12-14T11:53:20.005Z,17.85
2023-12-14T11:55:48.235Z,18.45
2023-12-14T11:58:16.806Z,18.35
2023-12-14T12:00:44.358Z,18.40
2023-12-14T12:03:18.810Z,18.67
2023-12-14T12:05:48.478Z,18.27
2023-12-14T12:08:17.492Z,18.40
2023-12-14T12:10:46.004Z,19.38
2023-12-14T12:13:15.653Z,18.35
2023-12-14T12:15:43.512Z,17.83
2023-12-14T12:18:14.927Z,18.42
2023-12-14T12:20:42.355Z,18.85
2023-12-14T12:23:09.695Z,19.67
2023-12-14T12:25:37.091Z,18.00
2023-12-14T12:28:07.590Z,18.90
2023-12-14T12:30:38.001Z,18.35
2023-12-14T12:33:07.120Z,19.50
2023-12-14T12:35:35.353Z,18.52
2023-12-14T12:38:03.194Z,18.38
2023-12-14T12:40:34.735Z,18.20
2023-12-14T12:43:02.376Z,17.83
2023-12-14T12:45:30.493Z,18.30
2023-12-14T12:47:58.173Z,17.67
2023-12-14T12:50:25.979Z,18.75
2023-12-14T12:52:53.468Z,18.75
2023-12-14T12:55:20.853Z,17.38
2023-12-14T12:57:49.000Z,18.77
2023-12-14T13:00:17.444Z,18.02
2023-12-14T13:02:49.227Z,18.45
2023-12-14T13:05:18.540Z,18.83
2023-12-14T13:07:48.398Z,18.42
2023-12-14T13:10:25.720Z,19.55
2023-12-14T13:12:58.649Z,18.45
2023-12-14T13:15:28.441Z,18.95
2023-12-14T13:17:56.087Z,19.00
2023-12-14T13:20:23.633Z,18.30
2023-12-14T13:22:51.615Z,17.67
2023-12-14T13:25:18.921Z,18.83
2023-12-14T13:27:46.293Z,18.58
2023-12-14T13:30:18.722Z,18.50
2023-12-14T13:32:47.249Z,18.08
2023-12-14T13:35:15.166Z,18.33
2023-12-14T13:37:42.856Z,19.23
2023-12-14T13:40:13.792Z,18.23
2023-12-14T13:42:50.826Z,18.90
2023-12-14T13:45:31.770Z,18.98
2023-12-14T13:48:00.215Z,19.88
2023-12-14T13:50:29.575Z,19.38
2023-12-14T13:52:57.617Z,19.95
2023-12-14T13:55:25.096Z,20.40
2023-12-14T13:57:52.468Z,20.13
2023-12-14T14:00:20.444Z,19.45
2023-12-14T14:02:47.772Z,19.50
2023-12-14T14:05:15.226Z,20.23
2023-12-14T14:07:42.593Z,19.48
2023-12-14T14:10:11.219Z,19.52
2023-12-14T14:12:38.761Z,19.23
2023-12-14T14:15:07.279Z,19.35
2023-12-14T14:17:34.876Z,18.92
2023-12-14T14:20:02.900Z,18.92
2023-12-14T14:22:30.864Z,19.50
2023-12-14T14:24:58.276Z,19.67
2023-12-14T14:27:25.587Z,18.77
2023-12-14T14:29:56.378Z,19.05
2023-12-14T14:32:24.195Z,19.38
2023-12-14T14:34:51.995Z,20.75
2023-12-14T14:37:19.195Z,19.80
2023-12-14T14:39:46.461Z,19.83
2023-12-14T14:42:13.711Z,19.85
2023-12-14T14:44:41.888Z,19.48
2023-12-14T14:47:09.258Z,19.65
2023-12-14T14:49:36.534Z,19.80
2023-12-14T14:52:03.767Z,19.73
2023-12-14T14:54:30.937Z,19.95
2023-12-14T14:56:58.250Z,19.42
2023-12-14T14:59:25.585Z,20.02
2023-12-14T15:01:52.824Z,20.00
2023-12-14T15:04:20.070Z,20.13
2023-12-14T15:06:47.427Z,20.13
2023-12-14T15:09:14.646Z,20.48
2023-12-14T15:11:43.349Z,24.35
2023-12-14T15:14:10.625Z,23.27
2023-12-14T15:16:37.990Z,28.00
2023-12-14T15:19:05.295Z,23.02
2023-12-14T15:21:32.509Z,23.65
2023-12-14T15:23:59.774Z,25.95
2023-12-14T15:26:30.415Z,25.10
2023-12-14T15:28:58.412Z,23.33
2023-12-14T15:31:25.879Z,22.20
2023-12-14T15:33:53.216Z,21.63
2023-12-14T15:36:20.750Z,21.95
2023-12-14T15:38:47.958Z,21.38
2023-12-14T15:41:16.732Z,21.20
2023-12-14T15:43:44.072Z,20.83
2023-12-14T15:46:12.484Z,21.13
2023-12-14T15:48:42.702Z,24.35
2023-12-14T15:51:10.589Z,26.50
2023-12-14T15:53:38.565Z,23.45
2023-12-14T15:56:06.424Z,24.08
2023-12-14T15:58:33.727Z,22.25
2023-12-14T16:01:01.059Z,21.38
2023-12-14T16:03:28.392Z,21.65
2023-12-14T16:05:55.879Z,22.90
2023-12-14T16:08:23.438Z,21.73
2023-12-14T16:10:52.412Z,21.60
2023-12-14T16:13:19.738Z,25.60
2023-12-14T16:15:47.119Z,24.70
2023-12-14T16:18:15.029Z,24.23
2023-12-14T16:20:42.586Z,26.02
2023-12-14T16:23:09.974Z,23.98
2023-12-14T16:25:40.227Z,23.52
2023-12-14T16:28:07.474Z,23.48
2023-12-14T16:30:34.724Z,22.77
2023-12-14T16:33:02.257Z,22.70
2023-12-14T16:35:31.312Z,24.08
2023-12-14T16:37:58.999Z,23.20
2023-12-14T16:40:26.222Z,22.83
2023-12-14T16:42:53.488Z,23.77
2023-12-14T16:45:21.107Z,23.05
2023-12-14T16:47:48.337Z,23.10
2023-12-14T16:50:15.668Z,24.45
2023-12-14T16:52:42.995Z,21.92
2023-12-14T16:55:10.277Z,21.67
2023-12-14T16:57:37.720Z,22.33
2023-12-14T17:00:06.224Z,21.92
2023-12-14T17:02:33.942Z,22.83
2023-12-14T17:05:03.948Z,22.48
2023-12-14T17:07:31.804Z,22.10
2023-12-14T17:09:59.048Z,21.63
2023-12-14T17:12:26.305Z,21.53
2023-12-14T17:14:53.523Z,20.52
2023-12-14T17:17:23.400Z,21.60
2023-12-14T17:19:51.301Z,21.55
2023-12-14T17:22:18.528Z,21.23
2023-12-14T17:24:47.568Z,21.90
2023-12-14T17:27:14.815Z,22.20
2023-12-14T17:29:42.076Z,22.08
2023-12-14T17:32:10.324Z,21.48
2023-12-14T17:34:37.802Z,21.45
2023-12-14T17:37:05.102Z,21.20
2023-12-14T17:39:32.370Z,22.13
2023-12-14T17:42:00.603Z,22.27
2023-12-14T17:44:28.069Z,21.55
2023-12-14T17:47:05.086Z,22.25
2023-12-14T17:49:32.432Z,25.40
2023-12-14T17:51:59.740Z,26.58
2023-12-14T17:54:26.964Z,23.65
2023-12-14T17:56:54.436Z,24.30
2023-12-14T17:59:21.608Z,25.73
2023-12-14T18:01:49.028Z,26.60
2023-12-14T18:04:17.510Z,23.25
2023-12-14T18:06:45.741Z,22.15
2023-12-14T18:09:14.717Z,25.17
2023-12-14T18:11:42.219Z,22.60
2023-12-14T18:14:12.216Z,26.52
2023-12-14T18:16:41.297Z,27.38
2023-12-14T18:19:08.818Z,31.63
2023-12-14T18:21:36.869Z,31.70
2023-12-14T18:24:05.090Z,43.05
2023-12-14T18:26:32.812Z,40.97
2023-12-14T18:29:01.124Z,38.28
2023-12-14T18:31:34.080Z,27.77
2023-12-14T18:34:01.755Z,24.50
2023-12-14T18:36:29.396Z,22.35
2023-12-14T18:38:57.021Z,22.17
2023-12-14T18:41:24.354Z,22.87
2023-12-14T18:43:51.775Z,22.77
2023-12-14T18:46:19.050Z,22.70
2023-12-14T18:48:46.426Z,22.02
2023-12-14T18:51:14.188Z,21.85
2023-12-14T18:53:41.405Z,22.47
2023-12-14T18:56:08.987Z,22.70
2023-12-14T18:58:36.357Z,22.92
2023-12-14T19:01:05.677Z,22.07
2023-12-14T19:03:33.155Z,22.25
2023-12-14T19:06:09.290Z,22.10
2023-12-14T19:08:39.705Z,22.80
2023-12-14T19:11:07.406Z,22.10
2023-12-14T19:13:35.319Z,21.23
2023-12-14T19:16:03.392Z,21.50
2023-12-14T19:18:31.163Z,22.50
2023-12-14T19:20:58.866Z,22.50
2023-12-14T19:23:26.359Z,22.95
2023-12-14T19:25:56.021Z,21.73
2023-12-14T19:28:26.151Z,23.73
2023-12-14T19:30:53.569Z,22.40
2023-12-14T19:33:21.218Z,23.57
2023-12-14T19:35:48.771Z,23.33
2023-12-14T19:38:16.288Z,23.75
2023-12-14T19:40:43.508Z,27.13
2023-12-14T19:43:10.892Z,24.80
2023-12-14T19:45:38.413Z,24.43
2023-12-14T19:48:05.910Z,24.75
2023-12-14T19:50:33.154Z,24.93
2023-12-14T19:53:00.396Z,25.23
2023-12-14T19:55:27.669Z,23.27
2023-12-14T19:57:54.978Z,24.42
2023-12-14T20:00:23.694Z,24.20
2023-12-14T20:02:51.553Z,28.80
2023-12-14T20:05:19.048Z,29.65
2023-12-14T20:07:46.480Z,27.38
2023-12-14T20:10:35.904Z,31.60
2023-12-14T20:16:32.882Z,25.80
2023-12-14T20:19:00.448Z,26.40
2023-12-14T20:21:27.718Z,26.60
2023-12-14T20:23:55.401Z,26.20
2023-12-14T20:26:24.218Z,23.80
2023-12-14T20:28:51.759Z,25.05
2023-12-14T20:31:19.047Z,24.77
2023-12-14T20:33:47.490Z,24.60
2023-12-14T20:36:15.009Z,24.67
2023-12-14T20:38:44.387Z,24.73
2023-12-14T20:41:11.896Z,24.30
2023-12-14T20:43:42.029Z,25.07
2023-12-14T20:46:09.425Z,24.90
2023-12-14T20:48:38.975Z,22.63
2023-12-14T20:51:06.859Z,28.10
2023-12-14T20:53:34.142Z,25.55
2023-12-14T20:56:01.411Z,25.90
2023-12-14T20:58:28.655Z,26.83
2023-12-14T21:00:55.862Z,24.50
2023-12-14T21:03:23.329Z,23.88
2023-12-14T21:05:50.716Z,25.30
2023-12-14T21:08:18.207Z,24.98
2023-12-14T21:10:45.564Z,25.73
2023-12-14T21:13:12.860Z,24.83
2023-12-14T21:15:41.276Z,25.60
2023-12-14T21:18:08.862Z,25.93
2023-12-14T21:20:36.224Z,24.47
2023-12-14T21:23:09.941Z,25.73
2023-12-14T21:25:52.030Z,25.58
2023-12-14T21:28:19.298Z,24.48
2023-12-14T21:30:46.639Z,28.15
2023-12-14T21:33:14.796Z,25.42
2023-12-14T21:35:44.074Z,27.53
2023-12-14T21:38:13.199Z,25.60
2023-12-14T21:40:40.400Z,26.00
2023-12-14T21:43:07.588Z,27.60
2023-12-14T21:45:34.857Z,26.97
2023-12-14T21:48:02.112Z,25.77
2023-12-14T21:50:29.323Z,26.65
2023-12-14T21:52:56.632Z,28.42
2023-12-14T21:55:24.113Z,28.38
2023-12-14T21:57:51.355Z,31.17
2023-12-14T22:00:20.656Z,25.95
2023-12-14T22:02:48.320Z,26.17
2023-12-14T22:05:15.672Z,28.05
2023-12-14T22:07:42.864Z,27.67
2023-12-14T22:10:16.743Z,26.00
2023-12-14T22:12:46.074Z,26.35
2023-12-14T22:15:14.314Z,28.33
2023-12-14T22:17:42.101Z,32.28
2023-12-14T22:20:11.299Z,27.70
2023-12-14T22:22:38.835Z,29.10
2023-12-14T22:25:08.675Z,25.35
2023-12-14T22:27:36.052Z,28.00
2023-12-14T22:30:03.591Z,26.05
2023-12-14T22:32:30.873Z,24.45
2023-12-14T22:34:58.228Z,24.58
2023-12-14T22:37:25.429Z,25.52
2023-12-14T22:39:52.716Z,27.33
2023-12-14T22:42:20.386Z,29.80
2023-12-14T22:44:48.915Z,24.85
2023-12-14T22:47:17.143Z,25.67
2023-12-14T22:49:44.365Z,24.92
2023-12-14T22:52:11.626Z,24.38
2023-12-14T22:54:41.948Z,26.52
2023-12-14T22:57:09.191Z,27.88
2023-12-14T22:59:41.859Z,31.00
2023-12-14T23:02:09.597Z,33.95
2023-12-14T23:04:37.774Z,27.38
2023-12-14T23:07:05.328Z,26.77
2023-12-14T23:09:32.487Z,26.05
2023-12-14T23:12:00.194Z,26.75
2023-12-14T23:14:27.582Z,28.10
2023-12-14T23:16:56.880Z,34.38
2023-12-14T23:19:24.299Z,26.55
2023-12-14T23:21:51.591Z,25.90
2023-12-14T23:24:18.834Z,27.33
2023-12-14T23:26:46.041Z,28.65
2023-12-14T23:29:13.254Z,25.58
2023-12-14T23:31:40.430Z,25.17
2023-12-14T23:34:07.621Z,29.70
2023-12-14T23:36:34.957Z,27.13
2023-12-14T23:39:02.167Z,29.17
2023-12-14T23:41:29.462Z,29.25
2023-12-14T23:43:56.908Z,26.00
2023-12-14T23:46:24.324Z,27.95
2023-12-14T23:48:51.987Z,25.52
2023-12-14T23:51:20.231Z,39.17
2023-12-14T23:53:47.498Z,41.33
2023-12-14T23:56:14.872Z,32.63
2023-12-14T23:58:42.096Z,41.30
